Budapest Lorinc, Hungary

3:53 PM CEST on August 30, 2016 (GMT +0200)
Budapest | | Change Station

Elev 417 ft 47.42 °N, 19.21 °E | Updated 2 minutes ago

Partly Cloudy
Partly Cloudy
86.0 °F
Feels Like 86 °F
N
0.0
Wind Variable Wind from West
Gusts 0.0 mph

Today
High -- | Low -- °F
--% Chance of Precip.
Yesterday
High -- | Low -- °F
Precip. -- in
Pressure 30.12 in
Visibility 6.2 miles
Clouds Few 4500 ft
Heat Index 86 °F
Dew Point 60 °F
Humidity 41%
Rainfall 0.00 in
Snow Depth Not available.
5:59 AM 7:26 PM
Waning Crescent, 3% visible
METAR LHBP 301330Z 33005KT 300V040 9999 FEW045 27/15 Q1020 NOSIG
Pressure 30.12 in
Visibility 6.2 miles
Clouds Few 4500 ft
Heat Index 86 °F
Dew Point 60 °F
Humidity 41%
Rainfall 0.00 in
Snow Depth Not available.
5:59 AM 7:26 PM
Waning Crescent, 3% visible
METAR LHBP 301330Z 33005KT 300V040 9999 FEW045 27/15 Q1020 NOSIG

10-Day Weather Forecast

×

Almanac

Astronomy

Aug. 30, 2016 Rise Set
Actual Time
Civil Twilight
Nautical Twilight
Astronomical Twilight
Moon
Length of Visible Light
Length of Day
Tomorrow will be .
, % of the Moon is Illuminated

Today's Extremes

Country Highs Country Lows

Community

WunderPhotos

Upload Photos

1,935,833 photos uploaded!

WunderBlog® & News

Nearby

Air Quality

  Air Quality AQ Index Pollutant
Not available.

Snow Depth

Station Depth Elevation

Earthquake Activity

City Distance Mag. Time & Date
Minimum magnitude displayed is 2.5.

Coastal Water Temperatures

Place Temperature

Stations

Nearby Weather Stations

Station Location Temp. Windchill Dew Point Humidity Wind Precip. Elev Updated Type